createdAt,value
2023-01-25T00:02:04.246Z,102578.98
2023-01-25T00:05:47.922Z,102583.39
2023-01-25T00:09:31.399Z,102581.11
2023-01-25T00:13:14.984Z,102584.06
2023-01-25T00:16:49.826Z,102584.05
2023-01-25T00:20:33.216Z,102586.44
2023-01-25T00:24:16.526Z,102580.92
2023-01-25T00:27:52.800Z,102570.48
2023-01-25T00:31:38.966Z,102565.77
2023-01-25T00:35:25.085Z,102565.83
2023-01-25T00:39:01.672Z,102563.25
2023-01-25T00:42:45.124Z,102566.06
2023-01-25T00:46:21.547Z,102562.42
2023-01-25T00:50:04.835Z,102562.44
2023-01-25T00:53:48.549Z,102561.16
2023-01-25T00:57:32.186Z,102548.21
2023-01-25T01:01:08.517Z,102538.02
2023-01-25T01:04:52.119Z,102541.03
2023-01-25T01:08:38.041Z,102540.30
2023-01-25T01:12:21.658Z,102539.24
2023-01-25T01:16:05.494Z,102542.45
2023-01-25T01:19:42.850Z,102542.92
2023-01-25T01:23:26.552Z,102541.23
2023-01-25T01:27:09.991Z,102543.27
2023-01-25T01:30:53.882Z,102537.19
2023-01-25T01:34:37.380Z,102538.63
2023-01-25T01:38:21.100Z,102534.78
2023-01-25T01:42:04.734Z,102536.64
2023-01-25T01:45:46.381Z,102527.70
2023-01-25T01:49:35.954Z,102525.77
2023-01-25T01:53:16.776Z,102522.60
2023-01-25T01:57:00.275Z,102525.61
2023-01-25T02:00:43.810Z,102531.08
2023-01-25T02:04:19.877Z,102523.60
2023-01-25T02:08:12.162Z,102518.83
2023-01-25T02:11:49.723Z,102511.66
2023-01-25T02:15:33.043Z,102505.89
2023-01-25T02:19:17.393Z,102508.52
2023-01-25T02:23:00.854Z,102504.80
2023-01-25T02:26:37.481Z,102499.11
2023-01-25T02:30:21.028Z,102500.73
2023-01-25T02:34:04.630Z,102500.33
2023-01-25T02:37:48.069Z,102493.77
2023-01-25T02:41:37.361Z,102489.35
2023-01-25T02:45:23.647Z,102492.51
2023-01-25T02:49:07.737Z,102489.79
2023-01-25T02:52:40.360Z,102484.80
2023-01-25T02:56:23.824Z,102486.89
2023-01-25T03:00:07.219Z,102487.52
2023-01-25T03:03:50.804Z,102484.77
2023-01-25T03:07:34.360Z,102486.11
2023-01-25T03:11:17.940Z,102477.98
2023-01-25T03:15:01.542Z,102473.48
2023-01-25T03:18:45.028Z,102463.45
2023-01-25T03:22:28.900Z,102451.31
2023-01-25T03:26:12.287Z,102449.86
2023-01-25T03:29:48.660Z,102446.34
2023-01-25T03:33:32.146Z,102445.83
2023-01-25T03:37:14.305Z,102437.58
2023-01-25T03:40:57.781Z,102425.08
2023-01-25T03:44:41.381Z,102425.64
2023-01-25T03:48:17.964Z,102424.02
2023-01-25T03:51:49.994Z,102421.13
2023-01-25T03:55:26.581Z,102437.27
2023-01-25T03:59:09.861Z,102464.04
2023-01-25T04:02:53.305Z,102445.57
2023-01-25T04:06:29.909Z,102444.27
2023-01-25T04:10:13.333Z,102434.60
2023-01-25T04:13:41.796Z,102428.83
2023-01-25T04:17:25.257Z,102418.23
2023-01-25T04:21:09.135Z,102419.10
2023-01-25T04:24:52.508Z,102419.64
2023-01-25T04:28:51.351Z,102426.61
2023-01-25T04:32:34.901Z,102433.54
2023-01-25T04:36:48.868Z,102420.33
2023-01-25T04:40:22.825Z,102419.75
2023-01-25T04:44:07.909Z,102418.79
2023-01-25T04:47:51.559Z,102404.59
2023-01-25T04:51:29.940Z,102409.98
2023-01-25T04:55:13.648Z,102414.61
2023-01-25T04:58:58.166Z,102401.51
2023-01-25T05:02:24.493Z,102406.79
2023-01-25T05:13:33.803Z,102397.92
2023-01-25T05:17:24.451Z,102395.92
2023-01-25T05:21:08.045Z,102396.02
2023-01-25T05:24:53.034Z,102395.23
2023-01-25T05:28:38.176Z,102393.73
2023-01-25T05:32:17.581Z,102391.39
2023-01-25T05:36:02.656Z,102395.48
2023-01-25T05:39:47.454Z,102394.66
2023-01-25T05:43:35.399Z,102390.55
2023-01-25T05:47:20.471Z,102391.20
2023-01-25T05:50:58.214Z,102395.86
2023-01-25T05:54:43.107Z,102391.82
2023-01-25T05:58:26.470Z,102389.14
2023-01-25T06:02:11.625Z,102392.38
2023-01-25T06:05:55.611Z,102385.19
2023-01-25T06:09:40.517Z,102377.58
2023-01-25T06:13:18.299Z,102369.77
2023-01-25T06:17:03.024Z,102369.27
2023-01-25T06:20:53.905Z,102363.23
2023-01-25T06:24:38.742Z,102360.60
2023-01-25T06:28:24.103Z,102373.61
2023-01-25T06:32:09.424Z,102381.61
2023-01-25T06:35:54.865Z,102376.23
2023-01-25T06:39:39.906Z,102373.42
2023-01-25T06:43:25.140Z,102371.15
2023-01-25T06:47:10.244Z,102373.20
2023-01-25T06:50:55.237Z,102376.65
2023-01-25T06:54:40.151Z,102377.77
2023-01-25T06:58:15.498Z,102370.96
2023-01-25T07:02:03.518Z,102362.91
2023-01-25T07:05:37.470Z,102354.19
2023-01-25T07:09:22.807Z,102345.61
2023-01-25T07:13:07.900Z,102333.52
2023-01-25T07:16:52.907Z,102334.13
2023-01-25T07:20:37.641Z,102338.32
2023-01-25T07:24:25.769Z,102330.79
2023-01-25T07:28:10.795Z,102327.01
2023-01-25T07:32:04.978Z,102330.99
2023-01-25T07:35:49.899Z,102332.27
2023-01-25T07:39:34.955Z,102331.17
2023-01-25T07:43:19.860Z,102332.41
2023-01-25T07:47:04.601Z,102333.58
2023-01-25T07:51:44.036Z,102339.70
2023-01-25T07:59:00.405Z,102336.59
2023-01-25T08:02:45.205Z,102334.80
2023-01-25T08:06:29.796Z,102330.25
2023-01-25T08:10:03.098Z,102328.98
2023-01-25T08:13:48.395Z,102331.20
2023-01-25T08:17:33.534Z,102326.84
2023-01-25T08:21:18.683Z,102328.98
2023-01-25T08:25:02.302Z,102326.33
2023-01-25T08:28:46.813Z,102320.95
2023-01-25T08:32:31.640Z,102313.90
2023-01-25T08:36:16.464Z,102312.86
2023-01-25T08:39:59.838Z,102306.19
2023-01-25T08:43:44.773Z,102302.20
2023-01-25T08:47:29.549Z,102301.70
2023-01-25T08:51:06.966Z,102298.84
2023-01-25T08:54:51.819Z,102294.39
2023-01-25T08:58:36.804Z,102295.03
2023-01-25T09:02:21.713Z,102292.51
2023-01-25T09:05:59.245Z,102293.77
2023-01-25T09:09:44.061Z,102288.85
2023-01-25T09:13:28.935Z,102282.53
2023-01-25T09:17:05.869Z,102281.67
2023-01-25T09:20:50.967Z,102276.14
2023-01-25T09:24:25.026Z,102271.69
2023-01-25T09:28:02.206Z,102272.17
2023-01-25T09:31:40.442Z,102272.85
2023-01-25T09:35:23.855Z,102270.06
2023-01-25T09:39:08.852Z,102260.89
2023-01-25T09:43:11.544Z,102254.20
2023-01-25T09:47:02.472Z,102247.58
2023-01-25T09:51:14.332Z,102242.02
2023-01-25T09:54:59.346Z,102236.61
2023-01-25T09:58:42.960Z,102230.23
2023-01-25T10:02:45.801Z,102234.11
2023-01-25T10:06:25.684Z,102235.86
2023-01-25T10:10:17.768Z,102227.63
2023-01-25T10:14:02.680Z,102226.57
2023-01-25T10:17:47.226Z,102213.30
2023-01-25T10:21:31.917Z,102202.92
2023-01-25T10:25:15.307Z,102200.50
2023-01-25T10:29:01.769Z,102193.70
2023-01-25T10:32:55.915Z,102192.64
2023-01-25T10:36:41.217Z,102184.29
2023-01-25T10:40:36.719Z,102169.86
2023-01-25T10:44:21.563Z,102165.81
2023-01-25T10:48:15.491Z,102164.95
2023-01-25T10:52:09.270Z,102166.43
2023-01-25T10:56:03.505Z,102160.45
2023-01-25T10:59:56.967Z,102160.09
2023-01-25T11:03:41.946Z,102160.33
2023-01-25T11:07:29.888Z,102155.73
2023-01-25T11:11:32.871Z,102142.92
2023-01-25T11:14:56.011Z,102136.83
2023-01-25T11:18:46.506Z,102136.54
2023-01-25T11:22:24.734Z,102131.77
2023-01-25T11:26:27.769Z,102125.18
2023-01-25T11:30:08.456Z,102112.43
2023-01-25T11:33:35.058Z,102107.27
2023-01-25T11:37:34.509Z,102099.42
2023-01-25T11:41:31.194Z,102099.77
2023-01-25T11:45:25.321Z,102096.54
2023-01-25T11:49:31.411Z,102099.05
2023-01-25T11:53:28.592Z,102091.58
2023-01-25T11:57:23.235Z,102088.86
2023-01-25T12:01:24.728Z,102079.36
2023-01-25T12:05:30.881Z,102074.80
2023-01-25T12:09:21.710Z,102060.60
2023-01-25T12:13:06.523Z,102059.36
2023-01-25T12:16:51.594Z,102056.56
2023-01-25T12:20:54.515Z,102056.48
2023-01-25T12:24:51.158Z,102051.52
2023-01-25T12:28:38.730Z,102046.70
2023-01-25T12:32:38.637Z,102039.35
2023-01-25T12:36:13.754Z,102032.88
2023-01-25T12:39:58.612Z,102030.67
2023-01-25T12:43:46.028Z,102030.95
2023-01-25T12:47:36.453Z,102029.88
2023-01-25T12:51:21.370Z,102026.89
2023-01-25T12:55:01.303Z,102022.79
2023-01-25T12:58:49.076Z,102020.39
2023-01-25T13:02:48.648Z,102019.05
2023-01-25T13:06:34.570Z,102014.41
2023-01-25T13:10:43.926Z,102010.77
2023-01-25T13:14:31.358Z,102001.63
2023-01-25T13:18:23.369Z,101996.52
2023-01-25T13:22:17.114Z,101990.98
2023-01-25T13:26:05.195Z,101991.49
2023-01-25T13:34:24.504Z,101988.13
2023-01-25T13:38:21.767Z,101982.21
2023-01-25T13:42:03.880Z,101976.37
2023-01-25T13:45:48.942Z,101972.09
2023-01-25T13:49:33.937Z,101973.98
2023-01-25T13:53:18.821Z,101964.01
2023-01-25T13:57:07.725Z,101958.11
2023-01-25T14:01:01.895Z,101958.65
2023-01-25T14:04:48.187Z,101953.80
2023-01-25T14:08:35.720Z,101947.94
2023-01-25T14:12:20.570Z,101945.52
2023-01-25T14:16:10.579Z,101937.71
2023-01-25T14:20:07.197Z,101938.11
2023-01-25T14:23:58.196Z,101934.66
2023-01-25T14:27:22.727Z,101934.31
2023-01-25T14:31:07.832Z,101923.68
2023-01-25T14:34:24.334Z,101915.92
2023-01-25T14:38:15.266Z,101914.08
2023-01-25T14:41:41.920Z,101906.03
2023-01-25T14:45:21.295Z,101902.11
2023-01-25T14:49:21.850Z,101900.98
2023-01-25T14:53:06.629Z,101891.25
2023-01-25T14:56:49.981Z,101885.73
2023-01-25T15:00:34.933Z,101884.65
2023-01-25T15:04:20.024Z,101881.61
2023-01-25T15:08:03.150Z,101875.91
2023-01-25T15:12:06.154Z,101870.34
2023-01-25T15:16:00.320Z,101867.52
2023-01-25T15:19:44.522Z,101858.75
2023-01-25T15:23:22.178Z,101853.73
2023-01-25T15:27:07.513Z,101853.66
2023-01-25T15:30:45.412Z,101849.58
2023-01-25T15:34:30.389Z,101847.50
2023-01-25T15:38:08.785Z,101841.64
2023-01-25T15:41:46.421Z,101838.52
2023-01-25T15:45:31.278Z,101841.16
2023-01-25T15:49:16.252Z,101833.92
2023-01-25T15:53:01.307Z,101828.64
2023-01-25T15:56:31.630Z,101823.74
2023-01-25T16:00:16.583Z,101823.12
2023-01-25T16:04:01.529Z,101819.02
2023-01-25T16:07:46.476Z,101815.64
2023-01-25T16:11:25.062Z,101810.90
2023-01-25T16:15:10.363Z,101808.75
2023-01-25T16:18:46.857Z,101807.55
2023-01-25T16:22:31.781Z,101806.20
2023-01-25T16:26:16.731Z,101802.09
2023-01-25T16:30:01.679Z,101796.92
2023-01-25T16:33:39.181Z,101793.41
2023-01-25T16:37:02.661Z,101791.30
2023-01-25T16:40:33.994Z,101785.09
2023-01-25T16:44:19.075Z,101779.73
2023-01-25T16:48:04.206Z,101774.27
2023-01-25T16:51:58.117Z,101769.11
2023-01-25T16:55:43.343Z,101767.39
2023-01-25T16:59:28.588Z,101763.91
2023-01-25T17:03:13.683Z,101760.50
2023-01-25T17:07:01.373Z,101759.79
2023-01-25T17:10:46.196Z,101749.34
2023-01-25T17:14:31.316Z,101740.48
2023-01-25T17:18:17.028Z,101745.48
2023-01-25T17:21:56.055Z,101739.82
2023-01-25T17:25:41.546Z,101735.70
2023-01-25T17:29:26.709Z,101737.67
2023-01-25T17:33:11.358Z,101737.40
2023-01-25T17:36:56.447Z,101733.02
2023-01-25T17:40:29.917Z,101719.43
2023-01-25T17:44:14.893Z,101710.88
2023-01-25T17:47:59.800Z,101716.25
2023-01-25T17:51:44.945Z,101714.07
2023-01-25T17:55:30.052Z,101710.80
2023-01-25T17:59:08.793Z,101703.44
2023-01-25T18:02:54.060Z,101700.98
2023-01-25T18:06:39.437Z,101696.61
2023-01-25T18:10:24.829Z,101690.31
2023-01-25T18:14:02.630Z,101692.64
2023-01-25T18:17:48.044Z,101693.05
2023-01-25T18:21:25.822Z,101695.37
2023-01-25T18:25:11.822Z,101699.70
2023-01-25T18:28:40.767Z,101695.99
2023-01-25T18:32:26.984Z,101692.00
2023-01-25T18:36:13.084Z,101693.29
2023-01-25T18:39:58.495Z,101691.27
2023-01-25T18:43:43.975Z,101689.61
2023-01-25T18:47:29.390Z,101691.95
2023-01-25T18:51:14.153Z,101697.82
2023-01-25T18:54:52.490Z,101696.72
2023-01-25T18:58:37.609Z,101692.14
2023-01-25T19:02:24.185Z,101691.40
2023-01-25T19:06:09.377Z,101685.09
2023-01-25T19:09:54.438Z,101680.52
2023-01-25T19:13:32.878Z,101671.56
2023-01-25T19:17:19.795Z,101665.33
2023-01-25T19:21:05.411Z,101663.87
2023-01-25T19:24:31.295Z,101657.51
2023-01-25T19:28:16.830Z,101655.21
2023-01-25T19:32:07.490Z,101657.47
2023-01-25T19:35:52.600Z,101655.39
2023-01-25T19:39:40.377Z,101644.00
2023-01-25T19:43:24.123Z,101641.46
2023-01-25T19:47:18.044Z,101636.79
2023-01-25T19:51:03.458Z,101622.70
2023-01-25T19:54:48.720Z,101612.50
2023-01-25T19:58:33.688Z,101616.69
2023-01-25T20:02:20.959Z,101613.91
2023-01-25T20:06:06.415Z,101605.67
2023-01-25T20:09:55.797Z,101606.84
2023-01-25T20:13:41.347Z,101603.16
2023-01-25T20:17:26.605Z,101591.27
2023-01-25T20:21:10.579Z,101582.73
2023-01-25T20:24:54.161Z,101579.09
2023-01-25T20:28:38.049Z,101577.23
2023-01-25T20:32:32.370Z,101577.14
2023-01-25T20:36:16.804Z,101568.84
2023-01-25T20:39:55.783Z,101570.45
2023-01-25T20:43:20.878Z,101569.04
2023-01-25T20:47:06.103Z,101568.62
2023-01-25T20:50:51.744Z,101564.19
2023-01-25T20:54:37.237Z,101561.13
2023-01-25T20:58:22.400Z,101565.91
2023-01-25T21:02:16.941Z,101567.25
2023-01-25T21:05:54.856Z,101559.83
2023-01-25T21:09:29.727Z,101551.79
2023-01-25T21:12:57.856Z,101553.35
2023-01-25T21:16:43.812Z,101548.29
2023-01-25T21:20:28.975Z,101551.69
2023-01-25T21:24:14.062Z,101557.02
2023-01-25T21:27:58.760Z,101551.48
2023-01-25T21:31:32.607Z,101550.29
2023-01-25T21:35:17.579Z,101546.63
2023-01-25T21:39:02.434Z,101535.63
2023-01-25T21:42:47.183Z,101535.05
2023-01-25T21:46:34.916Z,101530.79
2023-01-25T21:49:50.711Z,101526.82
2023-01-25T21:53:36.011Z,101531.66
2023-01-25T21:57:20.839Z,101531.73
2023-01-25T22:01:05.784Z,101533.24
2023-01-25T22:04:40.084Z,101532.95
2023-01-25T22:08:25.003Z,101536.48
2023-01-25T22:12:08.960Z,101540.86
2023-01-25T22:15:54.002Z,101537.64
2023-01-25T22:19:34.104Z,101530.29
2023-01-25T22:23:07.611Z,101528.33
2023-01-25T22:26:52.368Z,101524.76
2023-01-25T22:30:26.298Z,101516.83
2023-01-25T22:34:02.645Z,101514.39
2023-01-25T22:37:49.013Z,101504.83
2023-01-25T22:41:34.304Z,101503.99
2023-01-25T22:45:19.180Z,101498.54
2023-01-25T22:48:54.074Z,101497.83
2023-01-25T22:52:39.170Z,101489.14
2023-01-25T22:56:14.506Z,101487.23
2023-01-25T22:59:59.688Z,101478.34
2023-01-25T23:03:44.636Z,101474.53
2023-01-25T23:07:35.431Z,101470.02
2023-01-25T23:11:01.734Z,101472.30
2023-01-25T23:14:45.187Z,101472.46
2023-01-25T23:18:28.733Z,101464.44
2023-01-25T23:22:07.882Z,101457.14
2023-01-25T23:25:51.796Z,101448.59
2023-01-25T23:29:26.074Z,101440.63
2023-01-25T23:33:11.111Z,101444.17
2023-01-25T23:36:54.748Z,101437.81
2023-01-25T23:40:39.774Z,101425.48
2023-01-25T23:44:13.484Z,101422.88
2023-01-25T23:47:58.337Z,101424.73
2023-01-25T23:51:43.678Z,101414.83
2023-01-25T23:55:21.525Z,101413.54
2023-01-25T23:58:55.726Z,101412.88
